createdAt,value
2023-03-25T00:00:28.856Z,7.40
2023-03-25T00:10:32.617Z,7.20
2023-03-25T00:18:06.856Z,7.10
2023-03-25T00:20:37.053Z,7.10
2023-03-25T00:25:40.147Z,7.00
2023-03-25T00:30:41.521Z,7.00
2023-03-25T00:35:45.129Z,6.90
2023-03-25T00:38:15.683Z,6.70
2023-03-25T00:40:48.817Z,6.90
2023-03-25T00:45:49.388Z,6.90
2023-03-25T00:48:19.784Z,6.90
2023-03-25T00:53:20.213Z,6.90
2023-03-25T00:55:52.871Z,7.00
2023-03-25T00:58:22.873Z,7.00
2023-03-25T01:03:24.093Z,7.10
2023-03-25T01:05:56.415Z,7.10
2023-03-25T01:08:29.767Z,7.20
2023-03-25T01:11:04.851Z,7.10
2023-03-25T01:16:10.273Z,7.10
2023-03-25T01:21:12.071Z,7.10
2023-03-25T01:26:15.837Z,7.00
2023-03-25T01:28:46.979Z,7.00
2023-03-25T01:31:18.734Z,6.90
2023-03-25T01:33:48.763Z,7.00
2023-03-25T01:36:21.485Z,6.90
2023-03-25T01:38:51.548Z,6.90
2023-03-25T01:41:24.718Z,6.90
2023-03-25T01:44:11.760Z,6.90
2023-03-25T01:46:45.137Z,6.80
2023-03-25T01:49:21.655Z,6.80
2023-03-25T01:51:55.976Z,6.80
2023-03-25T01:54:27.618Z,6.70
2023-03-25T01:57:00.951Z,6.70
2023-03-25T01:59:32.301Z,6.60
2023-03-25T02:02:06.653Z,6.60
2023-03-25T02:04:40.549Z,6.60
2023-03-25T02:07:11.963Z,6.60
2023-03-25T02:09:42.972Z,6.70
2023-03-25T02:12:16.008Z,6.70
2023-03-25T02:14:46.707Z,9.60
2023-03-25T02:17:25.980Z,7.30
2023-03-25T02:20:22.646Z,6.70
2023-03-25T02:23:31.172Z,6.60
2023-03-25T02:26:18.404Z,6.60
2023-03-25T02:28:57.456Z,9.30
2023-03-25T02:31:54.768Z,6.40
2023-03-25T02:34:41.963Z,6.60
2023-03-25T02:37:37.326Z,6.60
2023-03-25T02:40:12.311Z,6.70
2023-03-25T02:42:49.981Z,6.60
2023-03-25T02:45:25.242Z,6.60
2023-03-25T02:47:59.973Z,6.60
2023-03-25T02:50:34.429Z,6.60
2023-03-25T02:53:11.093Z,6.60
2023-03-25T02:55:48.194Z,6.60
2023-03-25T02:58:22.186Z,6.60
2023-03-25T03:00:53.477Z,6.60
2023-03-25T03:05:56.163Z,6.60
2023-03-25T03:08:53.319Z,6.60
2023-03-25T03:11:28.890Z,6.60
2023-03-25T03:14:09.638Z,6.60
2023-03-25T03:16:48.687Z,6.60
2023-03-25T03:19:34.514Z,6.50
2023-03-25T03:22:14.403Z,6.50
2023-03-25T03:24:48.994Z,6.40
2023-03-25T03:27:34.068Z,6.40
2023-03-25T03:30:10.988Z,6.40
2023-03-25T03:32:45.836Z,6.40
2023-03-25T03:35:21.092Z,6.40
2023-03-25T03:37:54.408Z,6.50
2023-03-25T03:40:28.118Z,6.50
2023-03-25T03:43:03.942Z,6.40
2023-03-25T03:45:37.265Z,6.50
2023-03-25T03:48:13.240Z,6.50
2023-03-25T03:50:49.147Z,6.50
2023-03-25T03:53:23.687Z,6.50
2023-03-25T03:55:58.259Z,6.50
2023-03-25T03:58:34.660Z,6.50
2023-03-25T04:01:11.529Z,6.50
2023-03-25T04:03:46.600Z,6.50
2023-03-25T04:06:24.641Z,6.50
2023-03-25T04:09:04.551Z,6.50
2023-03-25T04:11:42.272Z,6.50
2023-03-25T04:14:16.487Z,6.50
2023-03-25T04:16:47.311Z,6.50
2023-03-25T04:21:49.317Z,6.50
2023-03-25T04:24:20.087Z,6.50
2023-03-25T04:26:50.221Z,6.50
2023-03-25T04:29:22.855Z,6.50
2023-03-25T04:31:56.334Z,6.50
2023-03-25T04:34:27.301Z,6.40
2023-03-25T04:44:39.319Z,6.00
2023-03-25T04:47:16.425Z,6.00
2023-03-25T04:49:47.036Z,6.00
2023-03-25T04:59:51.059Z,5.80
2023-03-25T05:04:54.460Z,5.80
2023-03-25T05:07:24.521Z,5.50
2023-03-25T05:14:57.753Z,5.70
2023-03-25T05:20:00.151Z,5.80
2023-03-25T05:27:32.743Z,5.80
2023-03-25T05:30:06.371Z,5.70
2023-03-25T05:32:37.163Z,5.70
2023-03-25T05:35:08.281Z,5.70
2023-03-25T05:37:38.346Z,5.70
2023-03-25T05:40:14.599Z,5.70
2023-03-25T05:42:47.231Z,5.80
2023-03-25T05:45:20.144Z,5.60
2023-03-25T05:50:21.944Z,5.70
2023-03-25T05:52:52.816Z,5.60
2023-03-25T05:55:25.546Z,5.60
2023-03-25T05:57:57.077Z,5.40
2023-03-25T06:00:30.621Z,5.60
2023-03-25T06:05:33.942Z,5.60
2023-03-25T06:08:04.083Z,5.80
2023-03-25T06:15:40.848Z,5.60
2023-03-25T06:18:11.119Z,5.60
2023-03-25T06:20:41.179Z,5.60
2023-03-25T06:23:11.148Z,5.60
2023-03-25T06:25:41.294Z,5.70
2023-03-25T06:28:11.326Z,5.90
2023-03-25T06:30:44.139Z,5.70
2023-03-25T06:33:14.254Z,5.70
2023-03-25T06:36:04.276Z,5.70
2023-03-25T06:38:34.366Z,5.80
2023-03-25T06:41:11.547Z,5.80
2023-03-25T06:43:42.425Z,5.90
2023-03-25T06:46:33.845Z,5.90
2023-03-25T06:49:15.081Z,5.90
2023-03-25T06:51:45.276Z,6.00
2023-03-25T06:54:15.436Z,5.90
2023-03-25T06:56:45.425Z,5.90
2023-03-25T06:59:15.671Z,6.00
2023-03-25T07:01:48.381Z,6.10
2023-03-25T07:04:19.608Z,6.20
2023-03-25T07:06:49.879Z,6.40
2023-03-25T07:09:19.961Z,6.40
2023-03-25T07:11:50.077Z,6.40
2023-03-25T07:14:20.070Z,6.40
2023-03-25T07:16:52.710Z,6.50
2023-03-25T07:19:22.832Z,6.50
2023-03-25T07:21:52.826Z,6.50
2023-03-25T07:24:23.140Z,6.50
2023-03-25T07:26:53.222Z,6.60
2023-03-25T07:29:27.026Z,6.70
2023-03-25T07:31:59.607Z,6.80
2023-03-25T07:34:29.822Z,6.80
2023-03-25T07:36:59.892Z,6.80
2023-03-25T07:42:00.369Z,6.80
2023-03-25T07:47:22.441Z,6.90
2023-03-25T07:54:53.541Z,7.00
2023-03-25T07:57:23.612Z,7.00
2023-03-25T08:02:26.571Z,7.30
2023-03-25T08:17:32.981Z,7.60
2023-03-25T09:51:16.889Z,9.70
2023-03-25T09:53:53.225Z,9.60
2023-03-25T09:58:57.738Z,9.70
2023-03-25T10:04:25.937Z,10.00
2023-03-25T10:07:01.354Z,9.70
2023-03-25T10:15:02.150Z,9.70
2023-03-25T10:30:25.978Z,9.80
2023-03-25T10:33:00.052Z,9.70
2023-03-25T10:38:14.389Z,9.40
2023-03-25T10:40:50.371Z,9.30
2023-03-25T10:51:12.501Z,8.80
2023-03-25T10:53:44.850Z,8.60
2023-03-25T10:56:19.889Z,8.90
2023-03-25T10:58:53.482Z,9.50
2023-03-25T11:06:32.504Z,9.10
2023-03-25T11:09:19.539Z,8.90
2023-03-25T11:16:59.807Z,8.60
2023-03-25T11:19:33.812Z,8.50
2023-03-25T11:22:18.436Z,8.40
2023-03-25T11:24:54.689Z,8.10
2023-03-25T11:32:36.687Z,6.80
2023-03-25T11:35:17.449Z,6.40
2023-03-25T11:37:56.680Z,6.30
2023-03-25T11:42:59.988Z,7.10
2023-03-25T11:45:35.941Z,7.70
2023-03-25T11:48:14.950Z,8.10
2023-03-25T11:50:52.936Z,8.70
2023-03-25T11:53:29.180Z,9.10
2023-03-25T11:56:02.406Z,9.60
2023-03-25T11:58:36.213Z,10.10
2023-03-25T12:01:20.748Z,10.20
2023-03-25T12:06:25.059Z,9.40
2023-03-25T12:09:01.464Z,9.30
2023-03-25T12:11:34.486Z,9.10
2023-03-25T12:14:19.952Z,9.00
2023-03-25T12:16:58.094Z,9.40
2023-03-25T12:19:36.232Z,9.50
2023-03-25T12:22:16.166Z,9.90
2023-03-25T12:25:05.832Z,10.10
2023-03-25T12:27:47.909Z,10.10
2023-03-25T12:30:41.300Z,9.90
2023-03-25T12:33:26.580Z,9.70
2023-03-25T12:36:10.651Z,9.50
2023-03-25T12:38:48.808Z,9.40
2023-03-25T12:44:10.098Z,9.50
2023-03-25T12:47:07.602Z,9.70
2023-03-25T12:50:03.051Z,9.70
2023-03-25T12:55:27.932Z,9.80
2023-03-25T12:58:18.899Z,9.80
2023-03-25T13:13:57.871Z,9.80
2023-03-25T13:16:32.288Z,9.80
2023-03-25T13:21:40.685Z,9.70
2023-03-25T13:24:16.018Z,9.70
2023-03-25T13:26:48.664Z,9.60
2023-03-25T13:29:28.826Z,9.40
2023-03-25T13:39:56.244Z,8.10
2023-03-25T13:47:41.843Z,7.10
2023-03-25T13:52:54.314Z,6.70
2023-03-25T13:58:30.930Z,7.10
2023-03-25T14:04:24.981Z,7.70
2023-03-25T14:09:52.489Z,8.40
2023-03-25T14:14:58.876Z,8.20
2023-03-25T14:17:33.164Z,11.00
2023-03-25T14:20:04.433Z,7.80
2023-03-25T14:22:41.294Z,7.50
2023-03-25T14:25:23.906Z,7.40
2023-03-25T14:27:54.742Z,7.10
2023-03-25T14:30:26.662Z,7.30
2023-03-25T14:33:03.093Z,7.80
2023-03-25T14:35:52.674Z,8.10
2023-03-25T14:38:52.664Z,8.90
2023-03-25T14:41:52.776Z,9.20
2023-03-25T14:44:28.016Z,9.60
2023-03-25T14:47:21.012Z,9.50
2023-03-25T14:50:01.613Z,9.20
2023-03-25T14:52:35.136Z,9.20
2023-03-25T14:55:12.276Z,9.50
2023-03-25T14:57:45.585Z,9.60
2023-03-25T15:00:28.966Z,9.90
2023-03-25T15:03:05.423Z,10.00
2023-03-25T15:05:39.371Z,9.70
2023-03-25T15:08:18.406Z,9.20
2023-03-25T15:10:53.567Z,9.10
2023-03-25T15:13:28.848Z,8.90
2023-03-25T15:16:03.578Z,8.90
2023-03-25T15:19:03.837Z,8.50
2023-03-25T15:22:18.697Z,8.80
2023-03-25T15:24:58.078Z,8.50
2023-03-25T15:27:45.848Z,8.80
2023-03-25T15:30:34.336Z,8.90
2023-03-25T15:33:19.609Z,9.30
2023-03-25T15:36:01.942Z,9.30
2023-03-25T15:39:09.537Z,9.20
2023-03-25T15:42:03.002Z,9.70
2023-03-25T15:45:03.170Z,9.80
2023-03-25T15:47:47.614Z,9.30
2023-03-25T15:50:36.657Z,9.60
2023-03-25T15:53:42.838Z,9.80
2023-03-25T15:56:15.947Z,9.90
2023-03-25T15:58:55.711Z,9.80
2023-03-25T16:01:30.530Z,9.90
2023-03-25T16:04:05.804Z,9.80
2023-03-25T16:06:42.125Z,9.70
2023-03-25T16:09:19.532Z,9.60
2023-03-25T16:11:50.171Z,9.70
2023-03-25T16:14:25.148Z,9.40
2023-03-25T16:16:57.888Z,9.50
2023-03-25T16:19:30.621Z,9.20
2023-03-25T16:22:08.438Z,9.60
2023-03-25T16:24:39.167Z,9.70
2023-03-25T16:27:13.263Z,9.70
2023-03-25T16:29:51.126Z,9.80
2023-03-25T16:32:22.712Z,9.80
2023-03-25T16:34:54.106Z,10.00
2023-03-25T16:37:25.375Z,9.80
2023-03-25T16:39:57.176Z,9.70
2023-03-25T16:42:32.609Z,9.70
2023-03-25T16:45:05.976Z,9.70
2023-03-25T16:47:37.540Z,9.60
2023-03-25T16:50:08.861Z,9.60
2023-03-25T16:52:40.228Z,9.50
2023-03-25T16:55:35.362Z,9.50
2023-03-25T16:58:05.803Z,9.40
2023-03-25T17:00:46.198Z,9.70
2023-03-25T17:03:20.199Z,9.40
2023-03-25T17:06:04.770Z,9.30
2023-03-25T17:08:34.746Z,9.30
2023-03-25T17:13:41.104Z,9.30
2023-03-25T17:16:14.298Z,9.30
2023-03-25T17:21:27.391Z,9.10
2023-03-25T17:23:59.641Z,9.00
2023-03-25T17:26:35.982Z,9.00
2023-03-25T17:29:10.406Z,8.90
2023-03-25T17:31:43.863Z,8.80
2023-03-25T17:34:15.819Z,8.90
2023-03-25T17:36:48.440Z,8.80
2023-03-25T17:39:22.001Z,8.60
2023-03-25T17:42:01.706Z,8.50
2023-03-25T17:44:37.446Z,8.40
2023-03-25T17:47:15.327Z,8.40
2023-03-25T17:57:19.509Z,8.00
2023-03-25T18:02:23.889Z,8.00
2023-03-25T18:04:53.863Z,8.10
2023-03-25T18:17:28.281Z,7.80
2023-03-25T18:19:59.175Z,7.80
2023-03-25T18:30:22.032Z,7.90
2023-03-25T18:32:54.806Z,7.50
2023-03-25T18:37:56.145Z,7.70
2023-03-25T18:40:28.426Z,7.60
2023-03-25T18:48:04.866Z,7.60
2023-03-25T18:50:36.692Z,7.50
2023-03-25T18:53:07.743Z,7.40
2023-03-25T18:55:38.749Z,7.40
2023-03-25T19:00:43.283Z,7.60
2023-03-25T19:03:16.182Z,7.40
2023-03-25T19:05:47.800Z,7.30
2023-03-25T19:08:21.082Z,7.30
2023-03-25T19:10:51.823Z,7.20
2023-03-25T19:18:29.439Z,7.20
2023-03-25T19:20:59.555Z,7.20
2023-03-25T19:26:01.305Z,7.30
2023-03-25T19:28:31.925Z,6.90
2023-03-25T19:31:03.786Z,6.90
2023-03-25T19:33:37.028Z,6.90
2023-03-25T19:36:08.656Z,6.90
2023-03-25T19:41:14.208Z,7.10
2023-03-25T19:48:48.120Z,7.30
2023-03-25T20:03:55.077Z,8.10
2023-03-25T20:06:25.675Z,7.50
2023-03-25T20:16:28.525Z,7.20
2023-03-25T20:19:01.578Z,7.60
2023-03-25T20:24:02.127Z,7.90
2023-03-25T20:34:07.438Z,7.90
2023-03-25T20:39:08.658Z,7.90
2023-03-25T20:41:38.676Z,7.30
2023-03-25T20:44:08.809Z,7.90
2023-03-25T20:49:13.025Z,7.60
2023-03-25T20:51:43.988Z,7.50
2023-03-25T20:59:18.113Z,7.30
2023-03-25T21:04:24.538Z,7.20
2023-03-25T21:14:25.797Z,7.30
2023-03-25T21:19:29.180Z,7.20
2023-03-25T21:27:01.696Z,7.00
2023-03-25T21:34:35.630Z,6.80
2023-03-25T21:37:06.415Z,6.70
2023-03-25T21:42:09.952Z,6.70
2023-03-25T21:44:43.117Z,6.60
2023-03-25T21:49:47.276Z,6.50
2023-03-25T22:04:58.860Z,6.20
2023-03-25T22:20:05.365Z,6.00
2023-03-25T22:22:36.097Z,6.00
2023-03-25T22:30:08.756Z,5.90
2023-03-25T22:32:39.500Z,5.90
2023-03-25T22:35:14.135Z,5.90
2023-03-25T22:40:16.961Z,6.00
2023-03-25T22:50:21.226Z,5.90
2023-03-25T23:05:26.091Z,5.80
2023-03-25T23:17:58.041Z,6.00
2023-03-25T23:20:31.884Z,5.90
2023-03-25T23:25:33.006Z,5.70
2023-03-25T23:35:39.546Z,5.70
2023-03-25T23:38:09.594Z,5.80
2023-03-25T23:40:40.105Z,6.00
2023-03-25T23:50:45.413Z,5.80
2023-03-25T23:53:15.779Z,5.60
2023-03-25T23:55:47.980Z,5.90
2023-03-25T23:58:18.674Z,5.60
